createdAt,value
2023-03-18T00:00:30.371Z,7.52
2023-03-18T00:02:57.328Z,7.50
2023-03-18T00:05:24.738Z,7.45
2023-03-18T00:07:51.373Z,7.37
2023-03-18T00:10:18.979Z,7.29
2023-03-18T00:12:45.697Z,7.23
2023-03-18T00:15:13.965Z,7.17
2023-03-18T00:17:41.404Z,7.20
2023-03-18T00:20:09.721Z,7.10
2023-03-18T00:22:40.834Z,6.93
2023-03-18T00:25:09.724Z,6.87
2023-03-18T00:27:36.900Z,6.94
2023-03-18T00:30:05.740Z,6.95
2023-03-18T00:32:33.217Z,6.90
2023-03-18T00:37:31.637Z,6.89
2023-03-18T00:40:03.389Z,6.82
2023-03-18T00:42:37.240Z,6.87
2023-03-18T00:45:06.357Z,7.04
2023-03-18T00:47:33.993Z,7.10
2023-03-18T00:52:27.830Z,6.90
2023-03-18T00:54:54.628Z,6.78
2023-03-18T00:57:25.253Z,6.69
2023-03-18T00:59:52.059Z,6.61
2023-03-18T01:02:19.425Z,6.69
2023-03-18T01:04:46.350Z,6.62
2023-03-18T01:07:13.620Z,6.72
2023-03-18T01:09:40.965Z,6.74
2023-03-18T01:12:09.729Z,6.75
2023-03-18T01:14:38.360Z,6.88
2023-03-18T01:17:07.445Z,6.93
2023-03-18T01:19:34.872Z,6.97
2023-03-18T01:22:03.841Z,7.00
2023-03-18T01:24:30.881Z,6.91
2023-03-18T01:26:58.286Z,6.75
2023-03-18T01:29:25.424Z,6.70
2023-03-18T01:31:52.435Z,6.70
2023-03-18T01:34:19.442Z,6.77
2023-03-18T01:36:46.641Z,6.78
2023-03-18T01:39:15.633Z,6.84
2023-03-18T01:41:42.467Z,6.92
2023-03-18T01:44:19.299Z,6.90
2023-03-18T01:46:47.876Z,6.92
2023-03-18T01:49:33.186Z,6.94
2023-03-18T01:52:05.492Z,6.88
2023-03-18T01:54:38.076Z,6.88
2023-03-18T01:57:05.125Z,6.88
2023-03-18T01:59:34.165Z,6.87
2023-03-18T02:02:03.372Z,6.88
2023-03-18T02:04:36.639Z,6.84
2023-03-18T02:07:04.339Z,6.87
2023-03-18T02:09:31.990Z,6.87
2023-03-18T02:14:33.324Z,6.77
2023-03-18T02:17:03.574Z,6.74
2023-03-18T02:19:46.933Z,6.71
2023-03-18T02:22:24.733Z,6.69
2023-03-18T02:25:02.398Z,6.74
2023-03-18T02:27:33.925Z,6.77
2023-03-18T02:30:03.297Z,6.83
2023-03-18T02:32:33.542Z,6.84
2023-03-18T02:35:03.341Z,6.80
2023-03-18T02:37:29.999Z,6.74
2023-03-18T02:40:02.379Z,6.75
2023-03-18T02:42:34.796Z,6.73
2023-03-18T02:47:28.875Z,6.75
2023-03-18T02:49:56.943Z,6.76
2023-03-18T02:52:24.764Z,6.72
2023-03-18T02:54:52.309Z,6.78
2023-03-18T02:57:19.130Z,6.93
2023-03-18T02:59:46.700Z,6.88
2023-03-18T03:02:13.441Z,6.91
2023-03-18T03:04:41.143Z,6.87
2023-03-18T03:07:12.678Z,6.83
2023-03-18T03:09:39.455Z,6.82
2023-03-18T03:12:06.805Z,6.81
2023-03-18T03:14:33.599Z,6.82
2023-03-18T03:17:00.454Z,6.83
2023-03-18T03:19:27.175Z,6.93
2023-03-18T03:21:53.864Z,6.88
2023-03-18T03:24:20.542Z,6.93
2023-03-18T03:26:48.158Z,6.85
2023-03-18T03:29:14.852Z,6.74
2023-03-18T03:31:41.885Z,6.72
2023-03-18T03:34:09.200Z,6.64
2023-03-18T03:36:36.061Z,6.63
2023-03-18T03:39:03.447Z,6.59
2023-03-18T03:41:30.266Z,6.64
2023-03-18T03:43:56.958Z,6.65
2023-03-18T03:46:23.679Z,6.59
2023-03-18T03:48:50.577Z,6.64
2023-03-18T03:51:17.448Z,6.68
2023-03-18T03:53:46.381Z,6.70
2023-03-18T03:56:13.220Z,6.72
2023-03-18T03:58:40.326Z,6.76
2023-03-18T04:01:08.746Z,6.60
2023-03-18T04:03:35.753Z,6.54
2023-03-18T04:06:03.446Z,6.55
2023-03-18T04:08:30.235Z,6.51
2023-03-18T04:11:00.169Z,6.63
2023-03-18T04:13:26.921Z,6.58
2023-03-18T04:15:53.584Z,6.61
2023-03-18T04:18:20.392Z,6.52
2023-03-18T04:20:48.050Z,6.63
2023-03-18T04:23:14.810Z,6.55
2023-03-18T04:25:44.747Z,6.64
2023-03-18T04:28:11.493Z,6.68
2023-03-18T04:30:38.213Z,6.63
2023-03-18T04:33:05.195Z,6.69
2023-03-18T04:35:32.429Z,6.67
2023-03-18T04:37:59.179Z,6.64
2023-03-18T04:40:26.252Z,6.67
2023-03-18T04:42:53.446Z,6.64
2023-03-18T04:45:20.758Z,6.70
2023-03-18T04:47:48.234Z,6.67
2023-03-18T04:50:17.935Z,6.69
2023-03-18T04:52:45.302Z,6.74
2023-03-18T04:55:14.266Z,6.81
2023-03-18T04:57:42.794Z,6.89
2023-03-18T05:00:12.822Z,6.85
2023-03-18T05:02:39.715Z,6.80
2023-03-18T05:05:07.909Z,6.61
2023-03-18T05:07:34.984Z,6.54
2023-03-18T05:12:28.241Z,6.59
2023-03-18T05:14:54.970Z,6.61
2023-03-18T05:17:21.692Z,6.66
2023-03-18T05:19:49.234Z,6.66
2023-03-18T05:22:18.233Z,6.70
2023-03-18T05:24:48.723Z,6.67
2023-03-18T05:27:18.489Z,6.60
2023-03-18T05:29:45.824Z,6.61
2023-03-18T05:32:14.843Z,6.63
2023-03-18T05:34:42.809Z,6.66
2023-03-18T05:37:12.455Z,6.68
2023-03-18T05:39:39.235Z,6.71
2023-03-18T05:42:06.556Z,6.72
2023-03-18T05:44:35.512Z,6.70
2023-03-18T05:49:27.932Z,6.68
2023-03-18T05:51:58.269Z,6.71
2023-03-18T05:54:25.883Z,6.70
2023-03-18T05:56:52.952Z,6.83
2023-03-18T05:59:20.463Z,6.79
2023-03-18T06:01:47.751Z,6.68
2023-03-18T06:04:15.526Z,6.84
2023-03-18T06:06:42.300Z,6.87
2023-03-18T06:09:10.980Z,7.05
2023-03-18T06:11:39.075Z,7.11
2023-03-18T06:14:07.907Z,7.11
2023-03-18T06:16:35.850Z,7.18
2023-03-18T06:19:02.541Z,7.23
2023-03-18T06:21:31.729Z,7.18
2023-03-18T06:23:58.914Z,7.19
2023-03-18T06:26:25.804Z,7.07
2023-03-18T06:28:52.784Z,7.00
2023-03-18T06:31:20.023Z,6.96
2023-03-18T06:33:47.580Z,6.87
2023-03-18T06:36:16.772Z,6.87
2023-03-18T06:38:45.154Z,6.97
2023-03-18T06:41:12.406Z,6.96
2023-03-18T06:43:48.017Z,7.00
2023-03-18T06:46:14.923Z,7.01
2023-03-18T06:48:41.902Z,7.03
2023-03-18T06:51:08.865Z,7.08
2023-03-18T06:53:36.653Z,7.25
2023-03-18T06:56:06.521Z,7.37
2023-03-18T06:58:34.387Z,7.38
2023-03-18T07:03:28.364Z,7.60
2023-03-18T07:05:56.167Z,7.74
2023-03-18T07:08:23.488Z,7.93
2023-03-18T07:10:54.333Z,8.04
2023-03-18T07:13:22.023Z,8.06
2023-03-18T07:15:48.891Z,8.10
2023-03-18T07:18:19.145Z,8.12
2023-03-18T07:20:46.740Z,8.35
2023-03-18T07:23:13.720Z,8.25
2023-03-18T07:25:40.412Z,8.28
2023-03-18T07:28:07.158Z,8.47
2023-03-18T07:30:34.560Z,8.61
2023-03-18T07:35:28.730Z,8.95
2023-03-18T07:37:55.515Z,9.02
2023-03-18T07:40:22.323Z,9.06
2023-03-18T07:42:52.014Z,9.16
2023-03-18T07:45:18.716Z,9.33
2023-03-18T07:47:47.268Z,9.42
2023-03-18T07:50:14.268Z,9.57
2023-03-18T07:52:41.316Z,9.35
2023-03-18T07:55:09.359Z,9.74
2023-03-18T07:57:36.822Z,10.20
2023-03-18T08:00:09.105Z,9.36
2023-03-18T08:02:39.547Z,9.34
2023-03-18T08:07:39.890Z,9.96
2023-03-18T08:10:07.302Z,10.15
2023-03-18T08:12:49.416Z,10.28
2023-03-18T08:15:18.768Z,10.31
2023-03-18T08:17:45.417Z,10.41
2023-03-18T08:20:12.636Z,11.02
2023-03-18T08:22:39.623Z,11.21
2023-03-18T08:25:07.041Z,11.33
2023-03-18T08:27:33.789Z,11.19
2023-03-18T08:30:03.054Z,11.56
2023-03-18T08:32:28.143Z,11.70
2023-03-18T08:34:54.839Z,12.25
2023-03-18T08:37:21.539Z,12.62
2023-03-18T08:39:48.266Z,12.46
2023-03-18T08:42:17.691Z,12.60
2023-03-18T08:44:44.397Z,12.94
2023-03-18T08:47:11.507Z,12.67
2023-03-18T08:49:38.988Z,13.20
2023-03-18T08:52:06.980Z,13.42
2023-03-18T08:54:33.842Z,13.31
2023-03-18T08:57:00.879Z,13.83
2023-03-18T08:59:27.794Z,14.47
2023-03-18T09:01:57.978Z,14.82
2023-03-18T09:04:26.146Z,14.59
2023-03-18T09:06:52.888Z,14.74
2023-03-18T09:09:20.669Z,14.63
2023-03-18T09:11:48.388Z,14.84
2023-03-18T09:14:15.312Z,15.00
2023-03-18T09:16:42.152Z,15.82
2023-03-18T09:19:08.901Z,15.96
2023-03-18T09:21:36.151Z,16.38
2023-03-18T09:24:02.915Z,16.56
2023-03-18T09:26:29.589Z,17.69
2023-03-18T09:28:56.786Z,16.62
2023-03-18T09:31:23.732Z,17.49
2023-03-18T09:33:50.609Z,18.31
2023-03-18T09:36:18.326Z,17.88
2023-03-18T09:38:47.659Z,18.31
2023-03-18T09:41:49.152Z,18.15
2023-03-18T09:44:25.963Z,17.48
2023-03-18T09:47:03.749Z,18.33
2023-03-18T09:49:55.418Z,18.47
2023-03-18T09:52:27.365Z,18.67
2023-03-18T09:55:02.630Z,18.08
2023-03-18T09:57:33.803Z,17.52
2023-03-18T10:00:02.990Z,17.83
2023-03-18T10:02:47.849Z,18.17
2023-03-18T10:05:19.934Z,17.76
2023-03-18T10:07:50.439Z,17.53
2023-03-18T10:10:22.380Z,18.10
2023-03-18T10:12:55.574Z,18.54
2023-03-18T10:15:31.592Z,19.03
2023-03-18T10:18:02.632Z,18.03
2023-03-18T10:21:01.225Z,18.67
2023-03-18T10:23:44.086Z,18.80
2023-03-18T10:26:24.424Z,18.22
2023-03-18T10:29:00.685Z,19.06
2023-03-18T10:31:34.195Z,19.13
2023-03-18T10:34:04.572Z,18.32
2023-03-18T10:36:55.901Z,18.26
2023-03-18T10:39:25.157Z,18.96
2023-03-18T10:41:54.653Z,19.12
2023-03-18T10:44:33.802Z,19.01
2023-03-18T10:47:04.014Z,19.38
2023-03-18T10:49:37.193Z,18.95
2023-03-18T10:52:34.307Z,19.64
2023-03-18T10:57:27.995Z,20.19
2023-03-18T10:59:54.870Z,20.73
2023-03-18T11:02:38.992Z,19.79
2023-03-18T11:05:23.760Z,19.67
2023-03-18T11:10:32.567Z,18.93
2023-03-18T11:15:29.168Z,19.54
2023-03-18T11:18:03.626Z,20.84
2023-03-18T11:20:47.721Z,21.00
2023-03-18T11:23:56.606Z,21.56
2023-03-18T11:26:28.941Z,20.69
2023-03-18T11:29:02.794Z,20.53
2023-03-18T11:31:32.182Z,20.44
2023-03-18T11:33:59.702Z,19.96
2023-03-18T11:36:28.579Z,19.34
2023-03-18T11:39:03.633Z,20.32
2023-03-18T11:41:30.389Z,20.49
2023-03-18T11:44:02.728Z,21.42
2023-03-18T11:46:53.782Z,22.11
2023-03-18T11:49:24.450Z,21.93
2023-03-18T11:54:53.967Z,22.45
2023-03-18T11:57:36.014Z,20.92
2023-03-18T12:00:03.634Z,22.01
2023-03-18T12:02:54.365Z,23.24
2023-03-18T12:05:28.965Z,23.07
2023-03-18T12:08:03.765Z,22.89
2023-03-18T12:10:36.480Z,23.46
2023-03-18T12:13:18.072Z,24.71
2023-03-18T12:18:30.917Z,23.00
2023-03-18T12:21:06.756Z,22.91
2023-03-18T12:24:03.660Z,23.57
2023-03-18T12:26:40.663Z,24.23
2023-03-18T12:29:36.152Z,24.09
2023-03-18T12:32:03.831Z,23.21
2023-03-18T12:34:58.635Z,24.52
2023-03-18T12:38:04.046Z,24.43
2023-03-18T12:43:57.801Z,23.96
2023-03-18T12:46:50.827Z,23.27
2023-03-18T12:49:24.017Z,25.38
2023-03-18T12:52:06.736Z,25.20
2023-03-18T12:54:40.625Z,24.70
2023-03-18T12:57:45.299Z,24.35
2023-03-18T13:00:36.560Z,25.48
2023-03-18T13:03:18.666Z,23.81
2023-03-18T13:06:04.852Z,25.66
2023-03-18T13:08:47.261Z,25.33
2023-03-18T13:11:44.884Z,24.28
2023-03-18T13:14:11.555Z,24.32
2023-03-18T13:16:39.134Z,25.79
2023-03-18T13:19:06.665Z,24.81
2023-03-18T13:21:43.310Z,25.14
2023-03-18T13:24:30.940Z,25.17
2023-03-18T13:27:04.037Z,25.36
2023-03-18T13:29:47.274Z,24.87
2023-03-18T13:32:32.777Z,24.47
2023-03-18T13:35:02.776Z,25.16
2023-03-18T13:38:03.776Z,25.96
2023-03-18T13:40:53.620Z,24.75
2023-03-18T13:43:26.065Z,25.66
2023-03-18T13:45:57.746Z,24.00
2023-03-18T13:48:35.212Z,26.79
2023-03-18T13:51:03.781Z,26.18
2023-03-18T13:53:34.693Z,26.05
2023-03-18T13:56:03.884Z,24.75
2023-03-18T13:58:45.634Z,25.46
2023-03-18T14:01:36.520Z,26.42
2023-03-18T14:04:46.129Z,24.72
2023-03-18T14:07:18.682Z,24.42
2023-03-18T14:10:18.004Z,24.75
2023-03-18T14:12:52.980Z,23.48
2023-03-18T14:15:39.897Z,24.89
2023-03-18T14:18:20.179Z,22.47
2023-03-18T14:20:54.182Z,21.73
2023-03-18T14:23:24.418Z,22.85
2023-03-18T14:28:30.506Z,21.71
2023-03-18T14:31:00.740Z,21.80
2023-03-18T14:33:33.650Z,21.83
2023-03-18T14:36:11.197Z,21.19
2023-03-18T14:38:56.976Z,24.01
2023-03-18T14:41:29.327Z,23.78
2023-03-18T14:44:03.748Z,23.51
2023-03-18T14:46:37.018Z,23.26
2023-03-18T14:49:34.259Z,22.33
2023-03-18T14:52:04.666Z,23.27
2023-03-18T14:54:40.867Z,21.27
2023-03-18T14:57:07.860Z,21.34
2023-03-18T14:59:34.805Z,20.48
2023-03-18T15:02:04.452Z,21.11
2023-03-18T15:04:32.057Z,20.12
2023-03-18T15:07:05.655Z,20.29
2023-03-18T15:09:36.475Z,20.15
2023-03-18T15:12:20.581Z,19.79
2023-03-18T15:14:50.687Z,19.71
2023-03-18T15:17:17.892Z,19.69
2023-03-18T15:19:46.672Z,20.06
2023-03-18T15:22:21.561Z,19.56
2023-03-18T15:24:48.738Z,19.48
2023-03-18T15:27:20.724Z,19.72
2023-03-18T15:29:58.768Z,19.56
2023-03-18T15:32:28.636Z,19.58
2023-03-18T15:35:02.853Z,20.21
2023-03-18T15:37:40.507Z,19.31
2023-03-18T15:40:30.365Z,19.59
2023-03-18T15:43:07.228Z,19.73
2023-03-18T15:45:34.665Z,19.46
2023-03-18T15:48:02.852Z,19.41
2023-03-18T15:50:33.762Z,20.00
2023-03-18T15:53:03.788Z,19.42
2023-03-18T15:55:34.219Z,19.54
2023-03-18T15:58:03.845Z,19.81
2023-03-18T16:00:32.844Z,19.92
2023-03-18T16:02:59.928Z,21.10
2023-03-18T16:05:29.276Z,20.31
2023-03-18T16:07:56.189Z,19.68
2023-03-18T16:10:26.596Z,19.37
2023-03-18T16:12:58.157Z,19.16
2023-03-18T16:15:28.389Z,19.03
2023-03-18T16:17:56.618Z,18.64
2023-03-18T16:20:27.814Z,19.50
2023-03-18T16:22:55.679Z,19.52
2023-03-18T16:25:24.700Z,18.89
2023-03-18T16:27:57.456Z,18.72
2023-03-18T16:30:27.962Z,18.81
2023-03-18T16:35:34.867Z,18.32
2023-03-18T16:40:30.976Z,18.00
2023-03-18T16:42:58.267Z,17.93
2023-03-18T16:45:30.827Z,17.93
2023-03-18T16:48:03.879Z,17.97
2023-03-18T16:50:34.683Z,18.10
2023-03-18T16:55:30.348Z,18.65
2023-03-18T16:57:59.909Z,18.10
2023-03-18T17:00:33.066Z,17.72
2023-03-18T17:05:29.240Z,17.53
2023-03-18T17:07:56.190Z,17.39
2023-03-18T17:10:26.045Z,17.43
2023-03-18T17:12:59.697Z,17.25
2023-03-18T17:15:32.098Z,17.17
2023-03-18T17:18:00.052Z,17.17
2023-03-18T17:20:30.683Z,17.03
2023-03-18T17:22:58.722Z,16.90
2023-03-18T17:25:28.304Z,16.82
2023-03-18T17:27:56.696Z,16.70
2023-03-18T17:30:31.415Z,16.56
2023-03-18T17:32:58.502Z,16.50
2023-03-18T17:35:26.153Z,16.40
2023-03-18T17:37:54.144Z,16.29
2023-03-18T17:40:23.371Z,16.17
2023-03-18T17:42:53.378Z,16.03
2023-03-18T17:45:35.309Z,15.90
2023-03-18T17:48:03.854Z,15.78
2023-03-18T17:50:30.664Z,15.64
2023-03-18T17:52:58.342Z,15.61
2023-03-18T17:55:26.501Z,15.46
2023-03-18T17:57:53.250Z,15.31
2023-03-18T18:00:24.496Z,15.14
2023-03-18T18:02:54.889Z,15.09
2023-03-18T18:05:23.701Z,15.26
2023-03-18T18:07:51.610Z,15.16
2023-03-18T18:10:20.963Z,15.20
2023-03-18T18:12:49.777Z,15.04
2023-03-18T18:15:20.007Z,14.97
2023-03-18T18:17:48.639Z,14.94
2023-03-18T18:20:19.020Z,14.72
2023-03-18T18:22:51.462Z,14.56
2023-03-18T18:25:21.955Z,14.44
2023-03-18T18:27:49.791Z,14.47
2023-03-18T18:30:18.769Z,14.36
2023-03-18T18:32:49.975Z,14.12
2023-03-18T18:35:19.278Z,13.88
2023-03-18T18:37:47.758Z,13.97
2023-03-18T18:40:16.598Z,13.77
2023-03-18T18:42:44.067Z,13.77
2023-03-18T18:45:18.354Z,13.71
2023-03-18T18:47:45.556Z,13.58
2023-03-18T18:50:21.906Z,13.62
2023-03-18T18:52:49.026Z,13.56
2023-03-18T18:55:15.832Z,13.66
2023-03-18T18:57:42.988Z,13.37
2023-03-18T19:00:22.247Z,13.32
2023-03-18T19:02:56.579Z,13.27
2023-03-18T19:05:23.965Z,13.16
2023-03-18T19:07:50.719Z,13.00
2023-03-18T19:10:18.433Z,12.73
2023-03-18T19:12:45.788Z,12.52
2023-03-18T19:15:15.393Z,12.56
2023-03-18T19:17:43.565Z,12.43
2023-03-18T19:20:30.962Z,12.29
2023-03-18T19:23:01.142Z,12.18
2023-03-18T19:25:27.885Z,12.14
2023-03-18T19:27:55.061Z,12.57
2023-03-18T19:30:24.118Z,12.52
2023-03-18T19:32:51.483Z,12.31
2023-03-18T19:35:18.275Z,12.24
2023-03-18T19:37:47.424Z,12.23
2023-03-18T19:40:20.533Z,11.89
2023-03-18T19:42:47.256Z,11.78
2023-03-18T19:45:14.233Z,11.90
2023-03-18T19:47:42.227Z,11.62
2023-03-18T19:50:17.505Z,11.58
2023-03-18T19:52:46.378Z,11.60
2023-03-18T19:55:15.890Z,11.34
2023-03-18T19:57:48.795Z,11.26
2023-03-18T20:00:24.321Z,11.27
2023-03-18T20:02:51.513Z,11.32
2023-03-18T20:05:21.104Z,11.30
2023-03-18T20:07:50.237Z,11.23
2023-03-18T20:10:19.327Z,11.28
2023-03-18T20:12:48.549Z,11.12
2023-03-18T20:15:23.557Z,10.96
2023-03-18T20:17:51.711Z,11.06
2023-03-18T20:20:20.900Z,10.92
2023-03-18T20:22:59.690Z,10.66
2023-03-18T20:25:35.894Z,10.90
2023-03-18T20:28:03.995Z,10.75
2023-03-18T20:30:35.519Z,10.76
2023-03-18T20:33:04.131Z,10.72
2023-03-18T20:35:34.408Z,10.81
2023-03-18T20:38:03.067Z,10.72
2023-03-18T20:40:31.436Z,10.55
2023-03-18T20:42:58.676Z,10.60
2023-03-18T20:45:27.026Z,10.50
2023-03-18T20:47:53.782Z,10.36
2023-03-18T20:50:26.765Z,10.31
2023-03-18T20:52:53.528Z,10.23
2023-03-18T20:55:29.432Z,10.22
2023-03-18T20:57:56.824Z,10.18
2023-03-18T21:00:26.268Z,10.09
2023-03-18T21:02:56.499Z,10.02
2023-03-18T21:05:25.287Z,10.02
2023-03-18T21:07:53.316Z,9.84
2023-03-18T21:10:22.899Z,9.90
2023-03-18T21:12:50.156Z,9.80
2023-03-18T21:15:25.157Z,10.04
2023-03-18T21:17:51.866Z,10.03
2023-03-18T21:20:22.885Z,9.95
2023-03-18T21:22:51.570Z,9.87
2023-03-18T21:25:21.357Z,9.92
2023-03-18T21:27:48.624Z,9.98
2023-03-18T21:30:17.620Z,9.97
2023-03-18T21:32:45.308Z,9.83
2023-03-18T21:35:18.374Z,9.85
2023-03-18T21:37:45.566Z,9.62
2023-03-18T21:40:21.889Z,9.52
2023-03-18T21:42:52.643Z,9.47
2023-03-18T21:45:22.996Z,9.42
2023-03-18T21:47:53.017Z,9.33
2023-03-18T21:50:22.212Z,9.38
2023-03-18T21:52:49.486Z,9.26
2023-03-18T21:55:17.466Z,9.23
2023-03-18T21:57:45.830Z,9.31
2023-03-18T22:00:22.490Z,9.19
2023-03-18T22:02:50.770Z,9.33
2023-03-18T22:05:21.092Z,9.15
2023-03-18T22:07:48.431Z,9.11
2023-03-18T22:10:17.794Z,9.04
2023-03-18T22:12:44.536Z,8.95
2023-03-18T22:15:33.899Z,9.05
2023-03-18T22:18:00.784Z,9.16
2023-03-18T22:20:27.852Z,9.07
2023-03-18T22:22:54.836Z,8.92
2023-03-18T22:25:28.108Z,8.86
2023-03-18T22:27:54.856Z,8.90
2023-03-18T22:30:22.563Z,8.87
2023-03-18T22:32:49.430Z,8.84
2023-03-18T22:35:21.937Z,8.75
2023-03-18T22:37:49.306Z,8.85
2023-03-18T22:40:27.503Z,8.82
2023-03-18T22:42:56.759Z,8.90
2023-03-18T22:45:26.000Z,8.92
2023-03-18T22:47:55.927Z,8.87
2023-03-18T22:50:24.978Z,8.98
2023-03-18T22:52:58.026Z,8.95
2023-03-18T22:55:27.134Z,8.89
2023-03-18T22:57:53.932Z,8.79
2023-03-18T23:00:30.929Z,8.93
2023-03-18T23:02:58.841Z,8.85
2023-03-18T23:05:26.174Z,8.74
2023-03-18T23:07:54.017Z,8.64
2023-03-18T23:10:21.130Z,8.54
2023-03-18T23:12:48.688Z,8.59
2023-03-18T23:15:18.226Z,8.48
2023-03-18T23:17:46.098Z,8.52
2023-03-18T23:20:15.864Z,8.50
2023-03-18T23:22:43.907Z,8.52
2023-03-18T23:25:16.332Z,8.61
2023-03-18T23:27:43.070Z,8.49
2023-03-18T23:30:11.307Z,8.29
2023-03-18T23:32:39.403Z,8.24
2023-03-18T23:35:07.457Z,8.27
2023-03-18T23:37:34.346Z,8.17
2023-03-18T23:40:01.420Z,8.11
2023-03-18T23:42:31.293Z,8.12
2023-03-18T23:44:57.983Z,8.27
2023-03-18T23:47:24.630Z,8.31
2023-03-18T23:49:51.510Z,8.15
2023-03-18T23:52:18.325Z,7.98
2023-03-18T23:54:45.045Z,8.00
2023-03-18T23:57:12.060Z,7.94
2023-03-18T23:59:39.158Z,7.78
